createdAt,value
2016-06-21T00:00:20.084Z,24.08
2016-06-21T00:01:18.835Z,24.04
2016-06-21T00:02:20.053Z,24.07
2016-06-21T00:03:20.054Z,24.03
2016-06-21T00:04:19.479Z,24.12
2016-06-21T00:05:19.483Z,24.04
2016-06-21T00:06:19.480Z,24.08
2016-06-21T00:07:20.169Z,24.07
2016-06-21T00:08:18.925Z,24.04
2016-06-21T00:09:20.127Z,24.04
2016-06-21T00:10:20.124Z,24.11
2016-06-21T00:11:20.133Z,24.12
2016-06-21T00:12:18.949Z,24.03
2016-06-21T00:13:19.545Z,24.07
2016-06-21T00:14:19.569Z,24.04
2016-06-21T00:15:18.995Z,24.03
2016-06-21T00:16:18.988Z,24.03
2016-06-21T00:17:19.025Z,24
2016-06-21T00:18:19.007Z,24.04
2016-06-21T00:19:19.618Z,24.08
2016-06-21T00:20:19.045Z,24.07
2016-06-21T00:21:19.034Z,24.08
2016-06-21T00:22:19.054Z,24.07
2016-06-21T00:23:20.277Z,24.04
2016-06-21T00:24:19.676Z,24.08
2016-06-21T00:25:19.097Z,24.08
2016-06-21T00:26:20.290Z,24.09
2016-06-21T00:27:19.697Z,24.03
2016-06-21T00:28:19.110Z,24.02
2016-06-21T00:29:20.324Z,24.11
2016-06-21T00:30:19.720Z,24.07
2016-06-21T00:31:19.146Z,24.07
2016-06-21T00:32:19.171Z,24.12
2016-06-21T00:33:20.369Z,24
2016-06-21T00:34:19.775Z,24.03
2016-06-21T00:35:19.802Z,24.08
2016-06-21T00:36:19.794Z,24.02
2016-06-21T00:37:20.438Z,24.08
2016-06-21T00:38:19.828Z,24.11
2016-06-21T00:39:19.847Z,24.03
2016-06-21T00:40:20.456Z,24.03
2016-06-21T00:41:19.846Z,24.03
2016-06-21T00:42:19.857Z,24.09
2016-06-21T00:43:20.464Z,24.08
2016-06-21T00:44:19.281Z,24.03
2016-06-21T00:45:19.293Z,24.03
2016-06-21T00:46:20.499Z,24.08
2016-06-21T00:47:19.315Z,24.02
2016-06-21T00:48:19.913Z,24
2016-06-21T00:49:20.535Z,24
2016-06-21T00:50:19.940Z,24.03
2016-06-21T00:51:19.943Z,24.07
2016-06-21T00:52:20.545Z,24.09
2016-06-21T00:53:20.565Z,24.03
2016-06-21T00:54:20.571Z,24.07
2016-06-21T00:55:19.387Z,24
2016-06-21T00:56:19.998Z,24.08
2016-06-21T00:57:20.006Z,24.11
2016-06-21T00:58:20.022Z,24
2016-06-21T00:59:20.629Z,24.08
2016-06-21T01:00:20.054Z,24.09
2016-06-21T01:01:20.043Z,23.99
2016-06-21T01:02:20.061Z,24.03
2016-06-21T01:03:20.070Z,23.99
2016-06-21T01:04:19.486Z,23.99
2016-06-21T01:05:20.677Z,24
2016-06-21T01:06:20.715Z,24.03
2016-06-21T01:07:20.907Z,23.99
2016-06-21T01:08:20.131Z,24.07
2016-06-21T01:09:20.129Z,24.03
2016-06-21T01:10:20.139Z,24.03
2016-06-21T01:11:20.141Z,24.04
2016-06-21T01:12:19.592Z,24.02
2016-06-21T01:13:20.162Z,24.04
2016-06-21T01:14:20.790Z,23.99
2016-06-21T01:15:19.590Z,24.03
2016-06-21T01:16:20.813Z,24.03
2016-06-21T01:17:20.208Z,24.08
2016-06-21T01:18:19.632Z,24.04
2016-06-21T01:19:20.221Z,24
2016-06-21T01:20:20.834Z,24.02
2016-06-21T01:21:20.272Z,24.04
2016-06-21T01:22:20.873Z,24.04
2016-06-21T01:23:19.663Z,24.04
2016-06-21T01:24:20.888Z,24.07
2016-06-21T01:25:20.296Z,24.02
2016-06-21T01:26:20.300Z,23.99
2016-06-21T01:27:20.309Z,23.99
2016-06-21T01:28:19.712Z,24.02
2016-06-21T01:29:19.722Z,24.02
2016-06-21T01:30:20.324Z,24.04
2016-06-21T01:31:20.941Z,24.07
2016-06-21T01:32:20.362Z,24.02
2016-06-21T01:33:20.990Z,24.02
2016-06-21T01:34:20.973Z,24.04
2016-06-21T01:35:20.383Z,23.99
2016-06-21T01:36:19.798Z,24.03
2016-06-21T01:37:21.003Z,24
2016-06-21T01:38:21.033Z,24.03
2016-06-21T01:39:21.019Z,24.03
2016-06-21T01:40:20.442Z,23.99
2016-06-21T01:41:19.850Z,24.02
2016-06-21T01:42:20.462Z,24.03
2016-06-21T01:43:19.901Z,23.99
2016-06-21T01:44:21.086Z,24
2016-06-21T01:45:21.102Z,24.04
2016-06-21T01:46:20.482Z,24.04
2016-06-21T01:47:19.915Z,23.97
2016-06-21T01:48:20.538Z,24.04
2016-06-21T01:49:19.936Z,24.02
2016-06-21T01:50:21.130Z,24.03
2016-06-21T01:51:21.158Z,23.99
2016-06-21T01:52:20.571Z,24.07
2016-06-21T01:53:20.563Z,24.07
2016-06-21T01:54:19.978Z,23.9
2016-06-21T01:55:20.597Z,24.03
2016-06-21T01:56:21.213Z,24.07
2016-06-21T01:57:21.207Z,23.97
2016-06-21T01:58:20.026Z,24.02
2016-06-21T01:59:20.033Z,24.08
2016-06-21T02:00:20.645Z,24.04
2016-06-21T02:01:20.046Z,24.03
2016-06-21T02:02:20.061Z,23.97
2016-06-21T02:03:21.258Z,24.08
2016-06-21T02:04:20.688Z,24.07
2016-06-21T02:05:20.686Z,23.9
2016-06-21T02:06:20.108Z,24.02
2016-06-21T02:07:21.314Z,24.04
2016-06-21T02:08:21.343Z,24.04
2016-06-21T02:09:20.123Z,24.03
2016-06-21T02:10:20.147Z,24.04
2016-06-21T02:11:20.151Z,24.08
2016-06-21T02:12:21.357Z,24.03
2016-06-21T02:13:21.357Z,24.03
2016-06-21T02:14:20.781Z,23.97
2016-06-21T02:15:21.414Z,23.92
2016-06-21T02:16:21.414Z,24.04
2016-06-21T02:17:21.418Z,24.04
2016-06-21T02:18:20.828Z,24
2016-06-21T02:19:20.835Z,23.96
2016-06-21T02:20:20.241Z,23.96
2016-06-21T02:21:20.870Z,24
2016-06-21T02:22:21.451Z,23.94
2016-06-21T02:23:20.290Z,24.04
2016-06-21T02:24:21.478Z,23.93
2016-06-21T02:25:20.897Z,23.92
2016-06-21T02:26:21.505Z,23.92
2016-06-21T02:27:20.912Z,23.9
2016-06-21T02:28:20.320Z,24.04
2016-06-21T02:29:20.933Z,23.96
2016-06-21T02:30:20.356Z,23.96
2016-06-21T02:31:20.366Z,23.99
2016-06-21T02:32:20.367Z,23.99
2016-06-21T02:33:20.383Z,23.94
2016-06-21T02:34:20.991Z,23.93
2016-06-21T02:35:20.990Z,23.93
2016-06-21T02:36:21.045Z,23.87
2016-06-21T02:37:21.625Z,24.02
2016-06-21T02:38:21.034Z,24.04
2016-06-21T02:39:21.041Z,23.9
2016-06-21T02:40:21.039Z,23.89
2016-06-21T02:41:21.657Z,24
2016-06-21T02:42:21.059Z,23.89
2016-06-21T02:43:21.671Z,23.96
2016-06-21T02:44:20.491Z,24.08
2016-06-21T02:45:21.112Z,23.94
2016-06-21T02:46:21.097Z,24.08
2016-06-21T02:47:21.721Z,23.99
2016-06-21T02:48:21.122Z,23.99
2016-06-21T02:49:21.126Z,24
2016-06-21T02:50:21.745Z,23.97
2016-06-21T02:51:21.166Z,23.97
2016-06-21T02:52:20.567Z,23.97
2016-06-21T02:53:21.787Z,24.03
2016-06-21T02:54:21.785Z,23.99
2016-06-21T02:55:21.194Z,23.99
2016-06-21T02:56:21.814Z,23.92
2016-06-21T02:57:21.219Z,23.93
2016-06-21T02:58:20.638Z,23.96
2016-06-21T02:59:20.649Z,23.92
2016-06-21T03:00:20.647Z,23.96
2016-06-21T03:01:21.869Z,23.97
2016-06-21T03:02:21.274Z,23.97
2016-06-21T03:03:21.290Z,23.93
2016-06-21T03:04:21.318Z,23.97
2016-06-21T03:05:21.298Z,23.93
2016-06-21T03:06:21.318Z,24
2016-06-21T03:07:21.336Z,23.93
2016-06-21T03:08:21.959Z,23.92
2016-06-21T03:09:20.754Z,24.03
2016-06-21T03:10:20.751Z,23.93
2016-06-21T03:11:20.769Z,23.94
2016-06-21T03:12:21.977Z,23.94
2016-06-21T03:13:21.387Z,24
2016-06-21T03:14:21.410Z,23.93
2016-06-21T03:15:20.815Z,23.97
2016-06-21T03:16:21.423Z,23.93
2016-06-21T03:17:22.037Z,23.93
2016-06-21T03:18:21.435Z,23.96
2016-06-21T03:19:21.441Z,23.94
2016-06-21T03:20:22.057Z,23.92
2016-06-21T03:21:21.466Z,23.94
2016-06-21T03:22:22.074Z,23.94
2016-06-21T03:23:20.889Z,23.89
2016-06-21T03:24:20.893Z,23.96
2016-06-21T03:25:21.510Z,24.03
2016-06-21T03:26:22.114Z,24.04
2016-06-21T03:27:22.129Z,23.93
2016-06-21T03:28:20.943Z,23.89
2016-06-21T03:29:22.148Z,23.99
2016-06-21T03:30:21.569Z,23.9
2016-06-21T03:31:20.967Z,24.02
2016-06-21T03:32:21.569Z,24
2016-06-21T03:33:22.185Z,23.93
2016-06-21T03:34:20.998Z,23.94
2016-06-21T03:35:22.209Z,24.04
2016-06-21T03:36:21.611Z,24.02
2016-06-21T03:37:21.625Z,24.07
2016-06-21T03:38:21.035Z,24.02
2016-06-21T03:39:21.655Z,24.03
2016-06-21T03:40:22.252Z,24
2016-06-21T03:41:21.068Z,24.07
2016-06-21T03:42:21.674Z,24.07
2016-06-21T03:43:21.674Z,24.07
2016-06-21T03:44:21.086Z,24.07
2016-06-21T03:45:21.712Z,24.02
2016-06-21T03:46:21.106Z,23.94
2016-06-21T03:47:21.721Z,23.9
2016-06-21T03:48:21.740Z,23.9
2016-06-21T03:49:21.753Z,23.97
2016-06-21T03:50:21.759Z,24.04
2016-06-21T03:51:21.776Z,24.07
2016-06-21T03:52:22.371Z,24
2016-06-21T03:53:21.784Z,23.9
2016-06-21T03:54:22.436Z,23.97
2016-06-21T03:55:22.419Z,24.02
2016-06-21T03:56:21.227Z,23.99
2016-06-21T03:57:22.424Z,24.02
2016-06-21T03:58:21.236Z,24.04
2016-06-21T03:59:21.250Z,24.02
2016-06-21T04:00:22.460Z,23.92
2016-06-21T04:01:22.472Z,24.04
2016-06-21T04:02:22.466Z,23.99
2016-06-21T04:03:21.875Z,24
2016-06-21T04:04:21.895Z,24.02
2016-06-21T04:05:21.907Z,24.03
2016-06-21T04:06:21.328Z,24.04
2016-06-21T04:07:21.334Z,24
2016-06-21T04:08:21.952Z,24.07
2016-06-21T04:09:22.537Z,24.02
2016-06-21T04:10:22.559Z,24.02
2016-06-21T04:11:21.959Z,24.02
2016-06-21T04:12:22.587Z,24.02
2016-06-21T04:13:22.605Z,24.07
2016-06-21T04:14:21.997Z,24.04
2016-06-21T04:15:22.615Z,24.04
2016-06-21T04:16:22.011Z,24.07
2016-06-21T04:17:22.044Z,24.02
2016-06-21T04:18:22.030Z,24.02
2016-06-21T04:19:21.450Z,24.03
2016-06-21T04:20:22.067Z,23.99
2016-06-21T04:21:22.653Z,24.02
2016-06-21T04:22:22.081Z,24.04
2016-06-21T04:23:21.487Z,24.03
2016-06-21T04:24:22.685Z,24.02
2016-06-21T04:25:22.113Z,24.04
2016-06-21T04:26:22.113Z,24.03
2016-06-21T04:27:21.559Z,24.02
2016-06-21T04:28:22.148Z,23.99
2016-06-21T04:29:22.749Z,23.97
2016-06-21T04:30:22.756Z,24.11
2016-06-21T04:31:22.185Z,24.04
2016-06-21T04:32:22.786Z,24.04
2016-06-21T04:33:22.198Z,24.02
2016-06-21T04:34:22.202Z,23.97
2016-06-21T04:35:21.637Z,24.02
2016-06-21T04:36:22.240Z,24
2016-06-21T04:37:21.631Z,24.03
2016-06-21T04:38:21.644Z,23.99
2016-06-21T04:39:22.842Z,24.03
2016-06-21T04:40:22.268Z,23.99
2016-06-21T04:41:22.268Z,24.02
2016-06-21T04:42:22.278Z,24.02
2016-06-21T04:43:22.295Z,24.07
2016-06-21T04:44:22.898Z,24.07
2016-06-21T04:45:22.326Z,24.03
2016-06-21T04:46:22.318Z,24.08
2016-06-21T04:47:22.341Z,24.03
2016-06-21T04:48:22.932Z,24.09
2016-06-21T04:49:22.359Z,24.04
2016-06-21T04:50:21.759Z,24.03
2016-06-21T04:51:22.986Z,24
2016-06-21T04:52:22.977Z,24.11
2016-06-21T04:53:22.997Z,24.07
2016-06-21T04:54:22.412Z,24.12
2016-06-21T04:55:21.808Z,24.08
2016-06-21T04:56:21.831Z,24.04
2016-06-21T04:57:22.441Z,24.02
2016-06-21T04:58:22.435Z,24.04
2016-06-21T04:59:22.461Z,24.11
2016-06-21T05:00:22.469Z,24.08
2016-06-21T05:01:21.902Z,24
2016-06-21T05:02:23.091Z,24.09
2016-06-21T05:03:21.907Z,24.07
2016-06-21T05:04:21.892Z,24.04
2016-06-21T05:05:22.509Z,24.11
2016-06-21T05:06:22.518Z,23.99
2016-06-21T05:07:22.541Z,24.03
2016-06-21T05:08:23.133Z,24.07
2016-06-21T05:09:22.554Z,24.04
2016-06-21T05:10:22.810Z,24.07
2016-06-21T05:11:22.570Z,24.07
2016-06-21T05:12:23.188Z,24.03
2016-06-21T05:13:23.187Z,24.04
2016-06-21T05:14:21.998Z,24.02
2016-06-21T05:15:23.219Z,24.09
2016-06-21T05:16:22.013Z,24.07
2016-06-21T05:17:22.630Z,24.07
2016-06-21T05:18:22.650Z,24.08
2016-06-21T05:19:22.062Z,24.08
2016-06-21T05:20:22.658Z,24.09
2016-06-21T05:21:23.279Z,24.12
2016-06-21T05:22:22.681Z,24.03
2016-06-21T05:23:23.315Z,24.04
2016-06-21T05:24:22.708Z,24.11
2016-06-21T05:25:22.717Z,24.08
2016-06-21T05:26:22.129Z,24.09
2016-06-21T05:27:22.734Z,24.08
2016-06-21T05:28:22.744Z,24.12
2016-06-21T05:29:22.751Z,24.12
2016-06-21T05:30:22.189Z,24.04
2016-06-21T05:31:22.179Z,24.11
2016-06-21T05:32:22.794Z,24.14
2016-06-21T05:33:22.790Z,24.12
2016-06-21T05:34:23.044Z,24.09
2016-06-21T05:35:22.822Z,24.09
2016-06-21T05:36:22.843Z,24.08
2016-06-21T05:37:22.842Z,24.09
2016-06-21T05:38:22.847Z,24.11
2016-06-21T05:39:22.252Z,24.11
2016-06-21T05:40:22.870Z,24.12
2016-06-21T05:41:23.502Z,24.08
2016-06-21T05:42:22.898Z,24.12
2016-06-21T05:43:22.907Z,24.09
2016-06-21T05:44:23.496Z,24.09
2016-06-21T05:45:23.512Z,24.11
2016-06-21T05:46:22.934Z,24.09
2016-06-21T05:47:22.949Z,24.22
2016-06-21T05:48:22.346Z,24.22
2016-06-21T05:49:23.552Z,24.22
2016-06-21T05:50:23.572Z,24.17
2016-06-21T05:51:22.985Z,24.15
2016-06-21T05:52:22.386Z,24.19
2016-06-21T05:53:22.405Z,24.15
2016-06-21T05:54:23.015Z,24.21
2016-06-21T05:55:22.429Z,24.26
2016-06-21T05:56:22.428Z,24.27
2016-06-21T05:57:23.053Z,24.22
2016-06-21T05:58:23.051Z,24.27
2016-06-21T05:59:22.454Z,24.27
2016-06-21T06:00:23.075Z,24.22
2016-06-21T06:01:23.686Z,24.24
2016-06-21T06:02:23.092Z,24.27
2016-06-21T06:03:23.705Z,24.27
2016-06-21T06:04:23.107Z,24.17
2016-06-21T06:05:22.518Z,24.26
2016-06-21T06:06:22.541Z,24.17
2016-06-21T06:07:23.142Z,24.17
2016-06-21T06:08:23.207Z,24.27
2016-06-21T06:09:23.448Z,24.27
2016-06-21T06:10:23.768Z,24.29
2016-06-21T06:11:23.791Z,24.21
2016-06-21T06:12:23.200Z,24.19
2016-06-21T06:13:23.809Z,24.27
2016-06-21T06:14:23.205Z,24.24
2016-06-21T06:15:23.224Z,24.21
2016-06-21T06:16:23.229Z,24.19
2016-06-21T06:17:22.652Z,24.17
2016-06-21T06:18:22.661Z,24.17
2016-06-21T06:19:23.255Z,24.19
2016-06-21T06:20:23.878Z,24.19
2016-06-21T06:21:22.694Z,24.14
2016-06-21T06:22:23.302Z,24.18
2016-06-21T06:23:23.318Z,24.21
2016-06-21T06:24:23.922Z,24.17
2016-06-21T06:25:23.336Z,24.15
2016-06-21T06:26:23.345Z,24.14
2016-06-21T06:27:23.338Z,24.15
2016-06-21T06:28:23.356Z,24.14
2016-06-21T06:29:23.975Z,24.22
2016-06-21T06:30:22.785Z,24.22
2016-06-21T06:31:23.387Z,24.26
2016-06-21T06:32:23.989Z,24.29
2016-06-21T06:33:23.402Z,24.19
2016-06-21T06:34:22.813Z,24.27
2016-06-21T06:35:22.831Z,24.22
2016-06-21T06:36:24.021Z,24.19
2016-06-21T06:37:22.845Z,24.21
2016-06-21T06:38:24.089Z,24.22
2016-06-21T06:39:24.064Z,24.3
2016-06-21T06:40:24.067Z,24.19
2016-06-21T06:41:23.494Z,24.19
2016-06-21T06:42:22.910Z,24.24
2016-06-21T06:43:24.101Z,24.14
2016-06-21T06:44:23.515Z,24.3
2016-06-21T06:45:23.527Z,24.22
2016-06-21T06:46:22.930Z,24.29
2016-06-21T06:47:23.545Z,24.26
2016-06-21T06:48:24.140Z,24.27
2016-06-21T06:49:22.978Z,24.27
2016-06-21T06:50:24.212Z,24.24
2016-06-21T06:51:22.980Z,24.22
2016-06-21T06:52:23.591Z,24.24
2016-06-21T06:53:23.604Z,24.21
2016-06-21T06:54:23.030Z,24.26
2016-06-21T06:55:24.224Z,24.26
2016-06-21T06:56:23.040Z,24.26
2016-06-21T06:57:23.635Z,24.29
2016-06-21T06:58:23.666Z,24.26
2016-06-21T06:59:23.669Z,24.27
2016-06-21T07:00:23.683Z,24.3
2016-06-21T07:01:23.090Z,24.24
2016-06-21T07:02:23.689Z,24.27
2016-06-21T07:03:23.712Z,24.24
2016-06-21T07:04:23.716Z,24.27
2016-06-21T07:05:23.719Z,24.32
2016-06-21T07:06:23.735Z,24.22
2016-06-21T07:07:24.363Z,24.22
2016-06-21T07:08:23.211Z,24.24
2016-06-21T07:09:23.769Z,24.14
2016-06-21T07:10:24.370Z,24.24
2016-06-21T07:11:23.788Z,24.29
2016-06-21T07:12:23.789Z,24.26
2016-06-21T07:13:24.409Z,24.26
2016-06-21T07:14:24.666Z,24.17
2016-06-21T07:15:23.821Z,24.15
2016-06-21T07:16:24.441Z,24.26
2016-06-21T07:17:23.253Z,24.29
2016-06-21T07:18:23.862Z,24.3
2016-06-21T07:19:23.268Z,24.15
2016-06-21T07:20:24.466Z,24.15
2016-06-21T07:21:24.484Z,24.27
2016-06-21T07:22:23.893Z,24.22
2016-06-21T07:23:24.510Z,24.3
2016-06-21T07:24:23.907Z,24.15
2016-06-21T07:25:24.535Z,24.29
2016-06-21T07:26:23.341Z,24.21
2016-06-21T07:27:23.358Z,24.19
2016-06-21T07:28:24.569Z,24.26
2016-06-21T07:29:23.972Z,24.27
2016-06-21T07:30:23.971Z,24.18
2016-06-21T07:31:24.593Z,24.24
2016-06-21T07:32:24.614Z,24.29
2016-06-21T07:33:24.013Z,24.26
2016-06-21T07:34:24.008Z,24.26
2016-06-21T07:35:23.418Z,24.27
2016-06-21T07:36:24.050Z,24.27
2016-06-21T07:37:23.470Z,24.34
2016-06-21T07:38:24.670Z,24.34
2016-06-21T07:39:24.086Z,24.33
2016-06-21T07:40:24.093Z,24.32
2016-06-21T07:41:24.699Z,24.33
2016-06-21T07:42:23.529Z,24.36
2016-06-21T07:43:24.722Z,24.34
2016-06-21T07:44:24.134Z,24.37
2016-06-21T07:45:24.156Z,24.37
2016-06-21T07:46:24.751Z,24.36
2016-06-21T07:47:23.562Z,24.44
2016-06-21T07:48:23.583Z,24.44
2016-06-21T07:49:24.774Z,24.4
2016-06-21T07:50:24.182Z,24.54
2016-06-21T07:51:24.794Z,24.45
2016-06-21T07:52:23.620Z,24.46
2016-06-21T07:53:24.814Z,24.48
2016-06-21T07:54:24.212Z,24.49
2016-06-21T07:55:23.629Z,24.52
2016-06-21T07:56:24.842Z,24.54
2016-06-21T07:57:23.651Z,24.56
2016-06-21T07:58:24.851Z,24.52
2016-06-21T07:59:23.682Z,24.46
2016-06-21T08:00:24.266Z,24.49
2016-06-21T08:01:23.691Z,24.45
2016-06-21T08:02:23.695Z,24.48
2016-06-21T08:03:24.323Z,24.56
2016-06-21T08:04:24.325Z,24.61
2016-06-21T08:05:24.334Z,24.61
2016-06-21T08:06:24.932Z,24.58
2016-06-21T08:07:24.952Z,24.66
2016-06-21T08:08:24.358Z,24.67
2016-06-21T08:09:24.376Z,24.71
2016-06-21T08:10:23.782Z,24.66
2016-06-21T08:11:25.014Z,24.63
2016-06-21T08:12:24.414Z,24.67
2016-06-21T08:13:24.417Z,24.71
2016-06-21T08:14:24.421Z,24.69
2016-06-21T08:15:23.835Z,24.69
2016-06-21T08:16:25.043Z,24.66
2016-06-21T08:17:25.064Z,24.7
2016-06-21T08:18:24.474Z,24.69
2016-06-21T08:19:24.475Z,24.74
2016-06-21T08:20:24.490Z,24.69
2016-06-21T08:21:24.485Z,24.74
2016-06-21T08:22:23.918Z,24.59
2016-06-21T08:23:25.116Z,24.7
2016-06-21T08:24:24.529Z,24.64
2016-06-21T08:25:24.541Z,24.61
2016-06-21T08:26:24.536Z,24.66
2016-06-21T08:27:24.567Z,24.67
2016-06-21T08:28:24.578Z,24.69
2016-06-21T08:29:24.597Z,24.7
2016-06-21T08:30:24.606Z,24.71
2016-06-21T08:31:24.609Z,24.77
2016-06-21T08:32:25.223Z,24.71
2016-06-21T08:33:24.018Z,24.78
2016-06-21T08:34:24.629Z,24.74
2016-06-21T08:35:24.662Z,24.8
2016-06-21T08:36:24.662Z,24.7
2016-06-21T08:37:25.274Z,24.83
2016-06-21T08:38:24.681Z,24.78
2016-06-21T08:39:24.691Z,24.78
2016-06-21T08:40:24.702Z,24.85
2016-06-21T08:41:24.107Z,24.85
2016-06-21T08:42:24.148Z,24.77
2016-06-21T08:43:24.133Z,24.74
2016-06-21T08:44:25.349Z,24.89
2016-06-21T08:45:24.157Z,24.78
2016-06-21T08:46:24.762Z,24.83
2016-06-21T08:47:24.772Z,24.78
2016-06-21T08:48:25.397Z,24.86
2016-06-21T08:49:24.796Z,24.8
2016-06-21T08:50:25.414Z,24.78
2016-06-21T08:51:24.819Z,24.78
2016-06-21T08:52:24.830Z,24.9
2016-06-21T08:53:24.836Z,24.83
2016-06-21T08:54:25.454Z,24.9
2016-06-21T08:55:24.863Z,24.82
2016-06-21T08:56:24.868Z,24.87
2016-06-21T08:57:25.466Z,24.71
2016-06-21T08:58:24.877Z,24.85
2016-06-21T08:59:24.297Z,24.83
2016-06-21T09:00:24.909Z,24.94
2016-06-21T09:01:24.913Z,24.94
2016-06-21T09:02:24.923Z,24.9
2016-06-21T09:03:24.344Z,24.86
2016-06-21T09:04:25.533Z,24.87
2016-06-21T09:05:24.966Z,24.92
2016-06-21T09:06:24.362Z,24.97
2016-06-21T09:07:24.974Z,24.9
2016-06-21T09:08:25.098Z,24.93
2016-06-21T09:09:24.990Z,24.92
2016-06-21T09:10:25.008Z,24.9
2016-06-21T09:11:25.612Z,24.92
2016-06-21T09:12:25.624Z,24.93
2016-06-21T09:13:25.641Z,24.9
2016-06-21T09:14:25.650Z,24.93
2016-06-21T09:15:25.674Z,24.92
2016-06-21T09:16:24.476Z,24.93
2016-06-21T09:17:25.086Z,24.8
2016-06-21T09:18:25.086Z,24.92
2016-06-21T09:19:24.500Z,24.86
2016-06-21T09:20:25.718Z,24.82
2016-06-21T09:21:25.122Z,24.78
2016-06-21T09:22:25.137Z,24.92
2016-06-21T09:23:25.746Z,24.93
2016-06-21T09:24:25.153Z,24.96
2016-06-21T09:25:25.792Z,24.96
2016-06-21T09:26:25.176Z,25.02
2016-06-21T09:27:25.202Z,25.09
2016-06-21T09:28:25.193Z,25.08
2016-06-21T09:29:25.202Z,24.97
2016-06-21T09:30:25.224Z,25.11
2016-06-21T09:31:25.235Z,25.02
2016-06-21T09:32:25.234Z,25.05
2016-06-21T09:33:25.258Z,25.09
2016-06-21T09:34:24.659Z,25.08
2016-06-21T09:35:24.657Z,25.08
2016-06-21T09:36:25.880Z,25.08
2016-06-21T09:37:25.280Z,25.04
2016-06-21T09:38:25.291Z,24.94
2016-06-21T09:39:25.900Z,24.89
2016-06-21T09:40:25.929Z,24.92
2016-06-21T09:41:25.329Z,24.92
2016-06-21T09:42:24.774Z,24.96
2016-06-21T09:43:25.358Z,24.89
2016-06-21T09:44:25.956Z,25.04
2016-06-21T09:45:24.768Z,25.01
2016-06-21T09:46:25.387Z,25.02
2016-06-21T09:47:25.997Z,25.02
2016-06-21T09:48:25.407Z,25.02
2016-06-21T09:49:25.415Z,25.09
2016-06-21T09:50:24.814Z,25.02
2016-06-21T09:51:25.434Z,25.01
2016-06-21T09:52:25.458Z,25.01
2016-06-21T09:53:26.059Z,25.04
2016-06-21T09:54:24.869Z,25.01
2016-06-21T09:55:24.863Z,24.96
2016-06-21T09:56:24.878Z,25.09
2016-06-21T09:57:26.096Z,25.15
2016-06-21T09:58:26.119Z,25.01
2016-06-21T09:59:25.520Z,25.11
2016-06-21T10:00:25.521Z,25.08
2016-06-21T10:01:24.932Z,25.08
2016-06-21T10:02:25.551Z,25.08
2016-06-21T10:03:24.962Z,25.05
2016-06-21T10:04:26.180Z,25.11
2016-06-21T10:05:26.188Z,25.12
2016-06-21T10:06:26.172Z,25.2
2016-06-21T10:07:25.610Z,25.05
2016-06-21T10:08:25.609Z,25.05
2016-06-21T10:09:26.218Z,25.11
2016-06-21T10:10:26.237Z,25.11
2016-06-21T10:11:25.642Z,25.15
2016-06-21T10:12:25.064Z,25.12
2016-06-21T10:13:25.070Z,25.24
2016-06-21T10:14:26.251Z,25.22
2016-06-21T10:15:25.675Z,25.22
2016-06-21T10:16:25.110Z,25.23
2016-06-21T10:17:25.704Z,25.17
2016-06-21T10:18:25.122Z,25.24
2016-06-21T10:19:25.723Z,25.29
2016-06-21T10:20:25.770Z,25.22
2016-06-21T10:21:26.355Z,25.22
2016-06-21T10:22:26.355Z,25.14
2016-06-21T10:23:25.774Z,25.15
2016-06-21T10:24:25.779Z,25.15
2016-06-21T10:25:26.408Z,25.14
2016-06-21T10:26:25.871Z,25.15
2016-06-21T10:27:26.428Z,25.15
2016-06-21T10:28:25.819Z,25.12
2016-06-21T10:29:25.813Z,25.09
2016-06-21T10:30:26.455Z,25.11
2016-06-21T10:31:25.835Z,25.07
2016-06-21T10:32:26.454Z,25.09
2016-06-21T10:33:25.895Z,25.15
2016-06-21T10:34:25.937Z,25.17
2016-06-21T10:35:26.513Z,25.23
2016-06-21T10:36:25.902Z,25.19
2016-06-21T10:37:25.893Z,25.23
2016-06-21T10:38:25.310Z,25.23
2016-06-21T10:39:25.918Z,25.34
2016-06-21T10:40:25.940Z,25.3
2016-06-21T10:41:25.939Z,25.34
2016-06-21T10:42:26.551Z,25.48
2016-06-21T10:43:25.371Z,25.34
2016-06-21T10:44:25.988Z,25.34
2016-06-21T10:45:25.995Z,25.39
2016-06-21T10:46:26.595Z,25.39
2016-06-21T10:47:25.415Z,25.47
2016-06-21T10:48:25.426Z,25.45
2016-06-21T10:49:25.419Z,25.42
2016-06-21T10:50:26.027Z,25.41
2016-06-21T10:51:26.647Z,25.45
2016-06-21T10:52:26.058Z,25.44
2016-06-21T10:53:25.471Z,25.39
2016-06-21T10:54:26.683Z,25.41
2016-06-21T10:55:26.073Z,25.38
2016-06-21T10:56:26.106Z,25.42
2016-06-21T10:57:26.711Z,25.39
2016-06-21T10:58:25.522Z,25.38
2016-06-21T10:59:25.530Z,25.3
2016-06-21T11:00:26.146Z,25.32
2016-06-21T11:01:25.552Z,25.34
2016-06-21T11:02:26.165Z,25.33
2016-06-21T11:03:26.767Z,25.33
2016-06-21T11:04:26.783Z,25.41
2016-06-21T11:05:26.207Z,25.42
2016-06-21T11:06:26.797Z,25.45
2016-06-21T11:07:26.258Z,25.49
2016-06-21T11:08:26.807Z,25.41
2016-06-21T11:09:25.646Z,25.47
2016-06-21T11:10:26.831Z,25.44
2016-06-21T11:11:26.243Z,25.56
2016-06-21T11:12:26.854Z,25.54
2016-06-21T11:13:26.289Z,25.6
2016-06-21T11:14:26.285Z,25.52
2016-06-21T11:15:26.304Z,25.54
2016-06-21T11:16:26.898Z,25.51
2016-06-21T11:17:26.320Z,25.48
2016-06-21T11:18:26.930Z,25.48
2016-06-21T11:19:26.936Z,25.57
2016-06-21T11:20:26.355Z,25.49
2016-06-21T11:21:26.379Z,25.52
2016-06-21T11:22:26.363Z,25.57
2016-06-21T11:23:25.778Z,25.59
2016-06-21T11:24:26.392Z,25.54
2016-06-21T11:25:25.799Z,25.57
2016-06-21T11:26:25.804Z,25.56
2016-06-21T11:27:25.806Z,25.51
2016-06-21T11:28:26.433Z,25.52
2016-06-21T11:29:25.827Z,25.66
2016-06-21T11:30:25.881Z,25.64
2016-06-21T11:31:26.474Z,25.74
2016-06-21T11:32:26.460Z,25.74
2016-06-21T11:33:27.247Z,25.76
2016-06-21T11:34:27.084Z,25.7
2016-06-21T11:35:27.135Z,25.76
2016-06-21T11:36:25.913Z,25.75
2016-06-21T11:37:26.548Z,25.78
2016-06-21T11:38:26.528Z,25.78
2016-06-21T11:39:26.541Z,25.84
2016-06-21T11:40:27.164Z,25.82
2016-06-21T11:41:25.965Z,25.81
2016-06-21T11:42:25.960Z,25.86
2016-06-21T11:43:26.579Z,25.89
2016-06-21T11:44:26.575Z,25.89
2016-06-21T11:45:27.201Z,25.78
2016-06-21T11:46:25.997Z,25.78
2016-06-21T11:47:26.618Z,25.67
2016-06-21T11:48:27.219Z,25.75
2016-06-21T11:49:27.231Z,25.76
2016-06-21T11:50:26.640Z,25.64
2016-06-21T11:51:27.256Z,25.66
2016-06-21T11:52:26.643Z,25.74
2016-06-21T11:53:27.267Z,25.66
2016-06-21T11:54:26.681Z,25.7
2016-06-21T11:55:27.281Z,25.66
2016-06-21T11:56:27.349Z,25.78
2016-06-21T11:57:27.327Z,25.7
2016-06-21T11:58:26.726Z,25.76
2016-06-21T11:59:27.350Z,25.96
2016-06-21T12:00:26.143Z,25.82
2016-06-21T12:01:26.762Z,25.94
2016-06-21T12:02:26.758Z,25.79
2016-06-21T12:03:27.369Z,25.79
2016-06-21T12:04:27.383Z,25.79
2016-06-21T12:05:26.793Z,25.86
2016-06-21T12:06:26.798Z,25.89
2016-06-21T12:07:27.419Z,25.89
2016-06-21T12:08:26.827Z,25.88
2016-06-21T12:09:27.435Z,25.94
2016-06-21T12:10:26.839Z,25.97
2016-06-21T12:11:26.864Z,25.99
2016-06-21T12:12:27.473Z,26
2016-06-21T12:13:26.275Z,26.03
2016-06-21T12:14:26.880Z,25.85
2016-06-21T12:15:26.896Z,25.86
2016-06-21T12:16:27.539Z,25.76
2016-06-21T12:17:26.913Z,25.86
2016-06-21T12:18:26.939Z,25.76
2016-06-21T12:19:27.536Z,25.82
2016-06-21T12:20:26.948Z,25.84
2016-06-21T12:21:26.365Z,25.89
2016-06-21T12:22:27.550Z,25.91
2016-06-21T12:23:27.591Z,25.85
2016-06-21T12:24:26.991Z,25.94
2016-06-21T12:25:27.837Z,25.93
2016-06-21T12:26:26.409Z,25.99
2016-06-21T12:27:27.015Z,25.96
2016-06-21T12:28:26.438Z,25.93
2016-06-21T12:29:27.635Z,25.94
2016-06-21T12:30:27.647Z,25.93
2016-06-21T12:31:27.069Z,25.89
2016-06-21T12:32:27.666Z,25.93
2016-06-21T12:33:27.685Z,25.96
2016-06-21T12:34:27.077Z,25.97
2016-06-21T12:35:26.517Z,25.96
2016-06-21T12:36:27.113Z,26.04
2016-06-21T12:37:27.709Z,26.12
2016-06-21T12:38:27.739Z,26.19
2016-06-21T12:39:26.543Z,26.22
2016-06-21T12:40:27.149Z,26.16
2016-06-21T12:41:27.772Z,26.19
2016-06-21T12:42:27.765Z,26.2
2016-06-21T12:43:26.569Z,26.24
2016-06-21T12:44:27.191Z,26.16
2016-06-21T12:45:27.201Z,26.24
2016-06-21T12:46:27.808Z,26.2
2016-06-21T12:47:27.245Z,26.17
2016-06-21T12:48:27.280Z,26.22
2016-06-21T12:49:27.244Z,26.22
2016-06-21T12:50:27.406Z,26.32
2016-06-21T12:51:27.915Z,26.23
2016-06-21T12:52:27.270Z,26.22
2016-06-21T12:53:27.285Z,26.2
2016-06-21T12:54:27.887Z,26.22
2016-06-21T12:55:27.897Z,26.09
2016-06-21T12:56:26.714Z,26.15